createdAt,value
2022-08-04T00:00:30.324Z,9.55
2022-08-04T00:03:47.278Z,9.10
2022-08-04T00:07:01.226Z,6.13
2022-08-04T00:10:08.952Z,15.02
2022-08-04T00:13:15.930Z,6.57
2022-08-04T00:16:22.109Z,8.90
2022-08-04T00:19:34.550Z,18.67
2022-08-04T00:22:41.846Z,9.63
2022-08-04T00:25:47.453Z,11.13
2022-08-04T00:28:53.012Z,10.88
2022-08-04T00:31:58.690Z,11.55
2022-08-04T00:35:06.427Z,6.47
2022-08-04T00:38:12.968Z,12.07
2022-08-04T00:41:28.358Z,9.60
2022-08-04T00:44:49.667Z,7.60
2022-08-04T00:48:11.200Z,10.70
2022-08-04T00:51:30.661Z,10.20
2022-08-04T00:54:43.753Z,10.07
2022-08-04T00:58:11.411Z,17.17
2022-08-04T01:01:30.477Z,9.82
2022-08-04T01:04:49.767Z,13.07
2022-08-04T01:08:13.219Z,8.98
2022-08-04T01:11:30.610Z,10.52
2022-08-04T01:14:52.977Z,8.38
2022-08-04T01:18:06.510Z,6.65
2022-08-04T01:21:55.017Z,6.57
2022-08-04T01:25:19.521Z,5.25
2022-08-04T01:28:42.452Z,14.32
2022-08-04T01:32:03.798Z,6.93
2022-08-04T01:35:22.190Z,4.32
2022-08-04T01:38:41.973Z,8.35
2022-08-04T01:41:58.347Z,7.85
2022-08-04T01:45:06.731Z,8.32
2022-08-04T01:48:17.638Z,8.25
2022-08-04T01:51:24.402Z,6.53
2022-08-04T01:54:30.793Z,13.10
2022-08-04T01:57:38.302Z,13.02
2022-08-04T02:00:58.339Z,11.80
2022-08-04T02:04:21.833Z,4.93
2022-08-04T02:07:51.824Z,5.88
2022-08-04T02:11:05.152Z,6.65
2022-08-04T02:14:40.256Z,6.72
2022-08-04T02:18:06.175Z,7.68
2022-08-04T02:21:16.452Z,4.20
2022-08-04T02:24:23.553Z,11.38
2022-08-04T02:28:00.172Z,10.07
2022-08-04T02:31:09.941Z,10.60
2022-08-04T02:34:21.262Z,8.82
2022-08-04T02:37:28.127Z,6.43
2022-08-04T02:40:33.295Z,5.97
2022-08-04T02:43:50.989Z,5.22
2022-08-04T02:46:57.994Z,5.07
2022-08-04T02:50:04.594Z,5.82
2022-08-04T02:53:13.993Z,4.07
2022-08-04T02:56:21.729Z,6.13
2022-08-04T02:59:28.662Z,4.80
2022-08-04T03:02:43.682Z,3.90
2022-08-04T03:06:10.536Z,4.20
2022-08-04T03:10:04.553Z,3.85
2022-08-04T03:13:59.489Z,6.50
2022-08-04T03:17:33.558Z,6.20
2022-08-04T03:21:45.103Z,3.70
2022-08-04T03:25:26.903Z,5.43
2022-08-04T03:29:12.029Z,4.90
2022-08-04T03:33:16.509Z,3.80
2022-08-04T03:37:13.567Z,6.20
2022-08-04T03:40:47.342Z,5.70
2022-08-04T03:44:29.867Z,5.90
2022-08-04T03:48:07.126Z,3.30
2022-08-04T03:51:53.324Z,3.90
2022-08-04T03:55:41.590Z,4.38
2022-08-04T03:59:02.321Z,3.22
2022-08-04T04:02:39.156Z,3.28
2022-08-04T04:06:38.610Z,3.67
2022-08-04T04:10:26.541Z,5.40
2022-08-04T04:14:09.028Z,3.67
2022-08-04T04:18:01.035Z,5.40
2022-08-04T04:21:31.148Z,8.02
2022-08-04T04:24:56.341Z,5.60
2022-08-04T04:28:44.235Z,3.65
2022-08-04T04:32:06.783Z,4.43
2022-08-04T04:35:24.339Z,3.83
2022-08-04T04:38:59.568Z,5.93
2022-08-04T04:42:34.991Z,4.93
2022-08-04T04:45:50.863Z,4.28
2022-08-04T04:49:05.624Z,3.75
2022-08-04T04:52:18.487Z,10.73
2022-08-04T04:55:27.616Z,6.38
2022-08-04T04:58:34.827Z,7.10
2022-08-04T05:02:31.621Z,6.35
2022-08-04T05:06:12.079Z,3.88
2022-08-04T05:09:29.461Z,8.80
2022-08-04T05:14:35.952Z,6.20
2022-08-04T05:16:22.927Z,4.82
2022-08-04T05:19:37.674Z,5.30
2022-08-04T05:22:49.306Z,4.57
2022-08-04T05:25:59.108Z,5.32
2022-08-04T05:29:08.730Z,5.40
2022-08-04T05:32:18.046Z,5.93
2022-08-04T05:35:56.307Z,5.05
2022-08-04T05:38:59.991Z,5.05
2022-08-04T05:42:06.476Z,3.13
2022-08-04T05:45:12.755Z,4.53
2022-08-04T05:48:19.270Z,3.35
2022-08-04T05:51:25.631Z,6.47
2022-08-04T05:54:33.589Z,6.40
2022-08-04T05:57:41.383Z,9.05
2022-08-04T06:00:51.537Z,3.40
2022-08-04T06:03:58.787Z,4.90
2022-08-04T06:07:04.234Z,6.38
2022-08-04T06:10:11.117Z,6.20
2022-08-04T06:13:48.743Z,2.65
2022-08-04T06:16:51.401Z,3.00
2022-08-04T06:20:19.056Z,3.42
2022-08-04T06:23:24.673Z,4.72
2022-08-04T06:26:32.179Z,3.40
2022-08-04T06:29:40.406Z,4.13
2022-08-04T06:33:04.102Z,4.25
2022-08-04T06:36:13.846Z,4.10
2022-08-04T06:39:20.343Z,4.20
2022-08-04T06:42:28.530Z,2.78
2022-08-04T06:45:35.894Z,2.40
2022-08-04T06:48:41.152Z,5.53
2022-08-04T06:51:49.217Z,4.13
2022-08-04T06:54:55.791Z,5.53
2022-08-04T06:58:03.860Z,4.63
2022-08-04T07:01:09.797Z,4.75
2022-08-04T07:04:15.000Z,6.00
2022-08-04T07:07:20.558Z,3.60
2022-08-04T07:10:42.490Z,4.63
2022-08-04T07:13:50.198Z,5.35
2022-08-04T07:16:56.003Z,2.60
2022-08-04T07:20:01.243Z,2.92
2022-08-04T07:23:08.243Z,3.50
2022-08-04T07:26:15.909Z,1.63
2022-08-04T07:29:22.918Z,2.95
2022-08-04T07:32:29.219Z,1.85
2022-08-04T07:36:10.614Z,2.10
2022-08-04T07:39:00.398Z,4.78
2022-08-04T07:42:06.459Z,3.63
2022-08-04T07:45:14.191Z,3.03
2022-08-04T07:48:22.671Z,2.00
2022-08-04T07:51:28.679Z,4.38
2022-08-04T07:54:35.551Z,3.03
2022-08-04T07:57:42.194Z,1.90
2022-08-04T08:00:49.064Z,2.17
2022-08-04T08:03:56.694Z,3.35
2022-08-04T08:07:01.774Z,1.95
2022-08-04T08:10:10.494Z,1.70
2022-08-04T08:13:16.839Z,6.20
2022-08-04T08:16:23.669Z,2.20
2022-08-04T08:19:30.881Z,2.53
2022-08-04T08:22:36.367Z,2.88
2022-08-04T08:25:41.877Z,1.85
2022-08-04T08:28:47.137Z,9.95
2022-08-04T08:31:56.236Z,2.53
2022-08-04T08:35:03.740Z,2.40
2022-08-04T08:38:10.729Z,4.03
2022-08-04T08:42:04.546Z,2.30
2022-08-04T08:45:53.980Z,2.58
2022-08-04T08:50:02.515Z,2.53
2022-08-04T08:53:15.574Z,2.95
2022-08-04T08:56:35.339Z,3.40
2022-08-04T08:59:58.878Z,2.70
2022-08-04T09:03:35.636Z,1.80
2022-08-04T09:06:55.673Z,2.80
2022-08-04T09:10:20.584Z,3.97
2022-08-04T09:13:34.659Z,1.70
2022-08-04T09:16:46.482Z,2.92
2022-08-04T09:19:59.098Z,3.67
2022-08-04T09:23:20.112Z,2.88
2022-08-04T09:26:33.273Z,1.83
2022-08-04T09:29:44.688Z,1.40
2022-08-04T09:33:09.290Z,1.45
2022-08-04T09:36:26.724Z,2.65
2022-08-04T09:39:41.972Z,5.60
2022-08-04T09:43:00.842Z,1.60
2022-08-04T09:46:14.743Z,6.45
2022-08-04T09:49:26.978Z,4.03
2022-08-04T09:52:46.429Z,5.15
2022-08-04T09:56:03.513Z,2.63
2022-08-04T09:59:21.506Z,5.68
2022-08-04T10:02:29.419Z,3.47
2022-08-04T10:05:50.971Z,3.67
2022-08-04T10:09:09.029Z,4.20
2022-08-04T10:12:31.870Z,4.88
2022-08-04T10:15:44.811Z,1.80
2022-08-04T10:19:07.957Z,4.50
2022-08-04T10:22:29.281Z,5.30
2022-08-04T10:26:07.075Z,2.45
2022-08-04T10:29:19.864Z,2.35
2022-08-04T10:32:29.467Z,1.70
2022-08-04T10:35:39.139Z,2.15
2022-08-04T10:38:57.976Z,3.92
2022-08-04T10:42:13.199Z,2.35
2022-08-04T10:45:25.231Z,3.42
2022-08-04T10:48:40.223Z,2.20
2022-08-04T10:51:58.846Z,3.58
2022-08-04T10:55:13.055Z,1.75
2022-08-04T10:58:23.279Z,1.92
2022-08-04T11:02:01.741Z,1.90
2022-08-04T11:05:20.456Z,2.58
2022-08-04T11:08:31.276Z,4.47
2022-08-04T11:12:00.728Z,1.88
2022-08-04T11:15:13.369Z,1.83
2022-08-04T11:18:37.126Z,2.55
2022-08-04T11:21:51.174Z,1.65
2022-08-04T11:25:06.174Z,2.35
2022-08-04T11:28:23.660Z,4.47
2022-08-04T11:31:33.514Z,1.73
2022-08-04T11:34:44.159Z,1.80
2022-08-04T11:38:05.787Z,2.65
2022-08-04T11:41:18.778Z,1.83
2022-08-04T11:44:33.170Z,1.90
2022-08-04T11:47:50.879Z,4.75
2022-08-04T11:50:57.327Z,3.70
2022-08-04T11:54:03.441Z,1.90
2022-08-04T11:57:10.379Z,3.00
2022-08-04T12:00:17.986Z,2.95
2022-08-04T12:03:37.590Z,5.43
2022-08-04T12:07:00.498Z,1.90
2022-08-04T12:10:40.932Z,1.70
2022-08-04T12:14:07.370Z,2.15
2022-08-04T12:17:14.317Z,3.10
2022-08-04T12:20:35.696Z,2.03
2022-08-04T12:23:47.050Z,3.28
2022-08-04T12:26:55.027Z,5.97
2022-08-04T12:31:01.110Z,2.17
2022-08-04T12:33:41.230Z,6.20
2022-08-04T12:37:04.237Z,1.70
2022-08-04T12:40:29.598Z,2.00
2022-08-04T12:43:39.800Z,5.18
2022-08-04T12:46:47.924Z,3.90
2022-08-04T12:50:00.778Z,4.68
2022-08-04T12:53:31.249Z,1.75
2022-08-04T12:56:38.885Z,6.18
2022-08-04T12:59:46.064Z,1.70
2022-08-04T13:03:09.664Z,4.30
2022-08-04T13:06:23.501Z,2.10
2022-08-04T13:09:33.821Z,2.67
2022-08-04T13:12:41.958Z,1.60
2022-08-04T13:15:58.454Z,4.55
2022-08-04T13:19:05.188Z,2.67
2022-08-04T13:22:16.241Z,3.42
2022-08-04T13:26:43.121Z,2.22
2022-08-04T13:28:50.729Z,2.50
2022-08-04T13:31:56.790Z,8.15
2022-08-04T13:35:03.914Z,2.03
2022-08-04T13:38:10.393Z,2.85
2022-08-04T13:41:15.972Z,2.67
2022-08-04T13:44:25.063Z,2.40
2022-08-04T13:47:34.232Z,2.15
2022-08-04T13:50:40.161Z,2.05
2022-08-04T13:53:45.466Z,3.13
2022-08-04T13:56:54.011Z,1.95
2022-08-04T14:00:06.779Z,2.78
2022-08-04T14:03:24.779Z,2.63
2022-08-04T14:06:34.793Z,3.33
2022-08-04T14:09:41.191Z,4.80
2022-08-04T14:13:07.630Z,1.95
2022-08-04T14:16:20.349Z,3.20
2022-08-04T14:19:29.352Z,3.95
2022-08-04T14:22:37.751Z,2.00
2022-08-04T14:25:42.861Z,7.28
2022-08-04T14:29:08.522Z,16.92
2022-08-04T14:32:15.032Z,7.43
2022-08-04T14:35:49.955Z,3.08
2022-08-04T14:38:57.363Z,2.72
2022-08-04T14:42:06.959Z,3.47
2022-08-04T14:45:13.089Z,3.80
2022-08-04T14:48:19.939Z,2.38
2022-08-04T14:51:26.374Z,3.08
2022-08-04T14:54:42.062Z,3.10
2022-08-04T14:58:33.867Z,3.42
2022-08-04T15:01:16.796Z,4.72
2022-08-04T15:04:25.163Z,3.60
2022-08-04T15:07:31.119Z,2.40
2022-08-04T15:10:36.719Z,2.28
2022-08-04T15:13:42.021Z,3.22
2022-08-04T15:16:54.586Z,5.18
2022-08-04T15:20:01.519Z,7.05
2022-08-04T15:23:10.847Z,4.07
2022-08-04T15:26:19.982Z,1.92
2022-08-04T15:29:58.990Z,5.97
2022-08-04T15:33:04.523Z,2.10
2022-08-04T15:36:17.649Z,2.17
2022-08-04T15:39:33.293Z,1.95
2022-08-04T15:42:47.565Z,4.80
2022-08-04T15:46:43.439Z,8.43
2022-08-04T15:49:21.472Z,2.58
2022-08-04T15:52:32.621Z,2.38
2022-08-04T15:55:39.818Z,2.03
2022-08-04T15:58:52.073Z,4.85
2022-08-04T16:02:31.155Z,1.85
2022-08-04T16:05:39.315Z,2.63
2022-08-04T16:09:00.623Z,2.42
2022-08-04T16:12:09.395Z,2.28
2022-08-04T16:15:47.826Z,2.15
2022-08-04T16:18:53.353Z,2.90
2022-08-04T16:22:03.000Z,3.92
2022-08-04T16:25:10.985Z,2.72
2022-08-04T16:28:40.371Z,2.03
2022-08-04T16:32:10.714Z,4.13
2022-08-04T16:35:29.254Z,2.22
2022-08-04T16:38:35.726Z,2.08
2022-08-04T16:41:44.653Z,3.50
2022-08-04T16:45:02.177Z,3.80
2022-08-04T16:48:09.337Z,2.10
2022-08-04T16:51:14.730Z,2.25
2022-08-04T16:54:20.352Z,4.72
2022-08-04T16:57:27.045Z,2.75
2022-08-04T17:00:35.502Z,2.55
2022-08-04T17:03:42.693Z,1.58
2022-08-04T17:06:48.226Z,6.15
2022-08-04T17:09:53.785Z,3.63
2022-08-04T17:13:20.812Z,3.42
2022-08-04T17:16:25.543Z,7.22
2022-08-04T17:19:30.661Z,5.43
2022-08-04T17:22:36.059Z,3.22
2022-08-04T17:25:53.008Z,3.38
2022-08-04T17:29:01.604Z,7.72
2022-08-04T17:32:07.358Z,7.32
2022-08-04T17:35:14.356Z,3.08
2022-08-04T17:38:19.804Z,6.63
2022-08-04T17:41:38.691Z,5.15
2022-08-04T17:44:45.651Z,9.88
2022-08-04T17:47:51.646Z,6.57
2022-08-04T17:50:56.684Z,4.90
2022-08-04T17:54:03.577Z,3.42
2022-08-04T17:57:20.716Z,10.98
2022-08-04T18:00:36.021Z,5.47
2022-08-04T18:03:53.148Z,8.13
2022-08-04T18:07:00.386Z,11.05
2022-08-04T18:10:34.816Z,5.63
2022-08-04T18:13:31.238Z,9.05
2022-08-04T18:16:48.994Z,8.98
2022-08-04T18:20:00.641Z,7.55
2022-08-04T18:23:07.156Z,5.90
2022-08-04T18:26:15.292Z,10.25
2022-08-04T18:29:31.575Z,7.18
2022-08-04T18:32:51.258Z,6.25
2022-08-04T18:36:34.146Z,4.22
2022-08-04T18:40:09.686Z,5.03
2022-08-04T18:42:55.191Z,6.03
2022-08-04T18:46:01.804Z,7.45
2022-08-04T18:49:10.062Z,8.77
2022-08-04T18:52:35.913Z,6.13
2022-08-04T18:55:56.997Z,6.28
2022-08-04T18:59:10.158Z,12.25
2022-08-04T19:02:17.552Z,6.47
2022-08-04T19:05:24.294Z,6.43
2022-08-04T19:08:44.971Z,8.18
2022-08-04T19:11:54.516Z,6.95
2022-08-04T19:15:08.351Z,6.28
2022-08-04T19:18:18.866Z,6.72
2022-08-04T19:21:58.732Z,6.32
2022-08-04T19:24:50.473Z,4.22
2022-08-04T19:27:55.682Z,5.40
2022-08-04T19:31:01.261Z,5.18
2022-08-04T19:34:07.209Z,4.78
2022-08-04T19:37:19.864Z,5.90
2022-08-04T19:40:39.751Z,5.00
2022-08-04T19:43:56.510Z,6.72
2022-08-04T19:47:02.463Z,12.05
2022-08-04T19:50:27.763Z,6.68
2022-08-04T19:53:37.437Z,8.65
2022-08-04T19:56:46.482Z,7.43
2022-08-04T19:59:54.956Z,5.45
2022-08-04T20:03:00.274Z,5.50
2022-08-04T20:06:06.016Z,8.48
2022-08-04T20:09:26.679Z,5.55
2022-08-04T20:12:32.263Z,8.98
2022-08-04T20:15:37.687Z,5.53
2022-08-04T20:18:57.098Z,5.65
2022-08-04T20:22:04.527Z,6.15
2022-08-04T20:25:35.603Z,6.55
2022-08-04T20:28:37.242Z,6.82
2022-08-04T20:31:43.389Z,6.85
2022-08-04T20:34:49.746Z,9.85
2022-08-04T20:38:00.553Z,6.80
2022-08-04T20:41:08.250Z,7.78
2022-08-04T20:44:18.734Z,7.35
2022-08-04T20:47:35.022Z,7.68
2022-08-04T20:50:42.618Z,7.90
2022-08-04T20:53:53.368Z,12.95
2022-08-04T20:57:00.318Z,8.55
2022-08-04T21:00:08.240Z,9.02
2022-08-04T21:03:16.083Z,11.27
2022-08-04T21:06:21.178Z,14.88
2022-08-04T21:09:37.893Z,10.95
2022-08-04T21:12:49.828Z,11.52
2022-08-04T21:15:59.298Z,9.45
2022-08-04T21:19:04.618Z,52.20
2022-08-04T21:22:10.715Z,9.18
2022-08-04T21:25:16.583Z,8.73
2022-08-04T21:28:27.810Z,15.45
2022-08-04T21:31:36.643Z,8.30
2022-08-04T21:34:41.980Z,11.30
2022-08-04T21:37:56.596Z,10.50
2022-08-04T21:41:03.764Z,10.68
2022-08-04T21:44:12.488Z,17.10
2022-08-04T21:47:23.257Z,14.75
2022-08-04T21:50:30.797Z,9.85
2022-08-04T21:53:36.031Z,10.23
2022-08-04T21:56:41.332Z,11.57
2022-08-04T21:59:57.063Z,19.10
2022-08-04T22:03:05.912Z,15.90
2022-08-04T22:06:28.297Z,9.70
2022-08-04T22:09:38.728Z,14.27
2022-08-04T22:12:46.825Z,10.75
2022-08-04T22:16:03.738Z,12.05
2022-08-04T22:19:28.755Z,14.85
2022-08-04T22:22:53.482Z,11.65
2022-08-04T22:25:59.018Z,17.10
2022-08-04T22:29:06.258Z,16.52
2022-08-04T22:32:13.787Z,28.90
2022-08-04T22:35:35.797Z,18.98
2022-08-04T22:38:53.579Z,21.05
2022-08-04T22:42:13.339Z,18.55
2022-08-04T22:45:18.805Z,14.60
2022-08-04T22:48:36.383Z,19.30
2022-08-04T22:51:50.685Z,16.70
2022-08-04T22:54:55.953Z,13.50
2022-08-04T22:58:05.499Z,13.07
2022-08-04T23:01:15.929Z,17.35
2022-08-04T23:04:22.773Z,11.57
2022-08-04T23:07:47.580Z,10.20
2022-08-04T23:10:55.711Z,11.88
2022-08-04T23:14:02.423Z,13.98
2022-08-04T23:17:08.043Z,11.05
2022-08-04T23:20:23.200Z,12.73
2022-08-04T23:23:38.184Z,11.57
2022-08-04T23:26:52.882Z,11.70
2022-08-04T23:29:59.464Z,12.00
2022-08-04T23:33:05.188Z,14.63
2022-08-04T23:36:13.864Z,16.63
2022-08-04T23:39:19.147Z,13.55
2022-08-04T23:42:24.351Z,11.48
2022-08-04T23:46:04.594Z,14.70
2022-08-04T23:48:56.152Z,17.42
2022-08-04T23:52:03.642Z,11.48
2022-08-04T23:55:19.031Z,10.57
2022-08-04T23:58:28.253Z,15.05
